Pagrindinis puslapis
METAR-TAF:

METAR-TAF

Oro uostai :

Savanaketas, Laosas

platuma: 16-33-24N, ilguma: 104-45-34E, Aukštis: 155 m

Dabartinis oras

Ataskaita buvo paskelbta 9 valandos ir 6 minutes, ne 12:00 UTC
Vėjas 2 kt iš Pietų
Temperatūra 28°C
Drėgmė 79%
Slėgis 1007 hPa
Matomumas: 3000 m
Išsisklaidę debesys ne aukštis 2000 ft
Su prošvaistėmis ne aukštis 10000 ft
rūkana

METAR: VLSK 171200Z 18002KT 3000 BR SCT020 BKN100 28/24 Q1007 NOSIG

Laikas: 04:06 (21:06 UTC)

Prognozė

Ataskaita buvo paskelbta 4 valandos ir 6 minutes, ne 17:00 UTC
Prognozė galioja nuo 17 metu 18 UTC su 18 metu 18 UTC
Vėjas 6 kt iš Pietvakarių
Matomumas: 7000 m
Išsisklaidę debesys ne aukštis 2000 ft
Su prošvaistėmis ne aukštis 10000 ft
Laikinai
nuo 17 metu 18 UTC su 17 metu 22 UTC
Matomumas: 3000 m
Išsisklaidę debesys ne aukštis 4000 ft
Su prošvaistėmis ne aukštis 10000 ft
rūkana

TAF: VLSK 171700Z 1718/1818 22006KT 7000 SCT020 BKN100 TEMPO 1718/1722 3000 BR SCT040 BKN100

Orai ataskaitas ir orų prognozės (METAR, TAF).

turimą stotys yra geltonos ir raudonos taškus žemėlapyje.

Perkelti pele per norėdami pamatyti stoties vardą.

Tada spustelėkite, norėdami matyti oro stebėjimo ir prognozės.

Norėdami pakeisti žemėlapį: spustelėkite ant žalios mygtukų su juodo kryžiaus žemyn,; žalią mygtuką su brūkšneliu, jei norite nutolinti; arba žalių rodyklių gretimoms žemėlapius.


METAR-TAF: